Terminal Aerodrome Forecast
Issued by NWS Spokane, WA

Home | Current Version | Previous Version | Text Only | Print | Product List | Glossary On
Versions: 1 2 3 4 5 6 7 8 9 10 11 12 13 14 15
000
FTUS46 KOTX 281737
TAFGEG
TAF
KGEG 281737Z 2818/2918 19011KT P6SM FEW080 FEW120
     FM282100 24010KT P6SM VCSH SCT070
     FM290200 25007KT P6SM -TSRA BKN070CB BKN100
      TEMPO 2902/2905 VRB20G30KT
     FM290500 27006KT P6SM SCT070
     FM290900 08005KT P6SM FEW200=

USA.gov is the U.S. government's official web portal to all federal, state and local government web resources and services.